sensor_id;sensor_type;location;lat;lon;timestamp;P1;durP1;ratioP1;P2;durP2;ratioP2
55031;SDS011;40928;51.076;7.950;2024-03-08T00:00:55;27.45;;;12.68;;
55031;SDS011;40928;51.076;7.950;2024-03-08T00:03:21;28.48;;;13.23;;
55031;SDS011;40928;51.076;7.950;2024-03-08T00:05:48;25.27;;;13.30;;
55031;SDS011;40928;51.076;7.950;2024-03-08T00:08:14;30.70;;;13.50;;
55031;SDS011;40928;51.076;7.950;2024-03-08T00:10:40;28.33;;;13.68;;
55031;SDS011;40928;51.076;7.950;2024-03-08T00:13:06;23.45;;;12.07;;
55031;SDS011;40928;51.076;7.950;2024-03-08T00:15:32;27.98;;;14.10;;
55031;SDS011;40928;51.076;7.950;2024-03-08T00:17:57;26.77;;;11.80;;
55031;SDS011;40928;51.076;7.950;2024-03-08T00:20:23;24.63;;;12.60;;
55031;SDS011;40928;51.076;7.950;2024-03-08T00:22:49;26.05;;;12.25;;
55031;SDS011;40928;51.076;7.950;2024-03-08T00:25:24;26.90;;;12.45;;
55031;SDS011;40928;51.076;7.950;2024-03-08T00:30:15;24.17;;;11.80;;
55031;SDS011;40928;51.076;7.950;2024-03-08T00:32:41;23.52;;;11.43;;
55031;SDS011;40928;51.076;7.950;2024-03-08T00:35:07;18.42;;;10.18;;
55031;SDS011;40928;51.076;7.950;2024-03-08T00:37:33;31.45;;;13.88;;
55031;SDS011;40928;51.076;7.950;2024-03-08T00:40:02;28.92;;;13.23;;
55031;SDS011;40928;51.076;7.950;2024-03-08T00:42:28;23.52;;;11.85;;
55031;SDS011;40928;51.076;7.950;2024-03-08T00:44:54;26.08;;;12.07;;
55031;SDS011;40928;51.076;7.950;2024-03-08T00:47:19;27.05;;;11.88;;
55031;SDS011;40928;51.076;7.950;2024-03-08T00:49:45;26.38;;;12.18;;
55031;SDS011;40928;51.076;7.950;2024-03-08T00:52:11;18.13;;;10.50;;
55031;SDS011;40928;51.076;7.950;2024-03-08T00:54:37;28.67;;;12.18;;
55031;SDS011;40928;51.076;7.950;2024-03-08T00:57:03;26.00;;;12.40;;
55031;SDS011;40928;51.076;7.950;2024-03-08T00:59:30;30.20;;;13.80;;
55031;SDS011;40928;51.076;7.950;2024-03-08T01:01:58;26.67;;;12.68;;
55031;SDS011;40928;51.076;7.950;2024-03-08T01:04:28;24.77;;;11.52;;
55031;SDS011;40928;51.076;7.950;2024-03-08T01:06:57;27.52;;;13.70;;
55031;SDS011;40928;51.076;7.950;2024-03-08T01:09:23;28.98;;;13.70;;
55031;SDS011;40928;51.076;7.950;2024-03-08T01:11:50;21.05;;;11.15;;
55031;SDS011;40928;51.076;7.950;2024-03-08T01:14:16;26.65;;;12.73;;
55031;SDS011;40928;51.076;7.950;2024-03-08T01:16:42;23.73;;;12.00;;
55031;SDS011;40928;51.076;7.950;2024-03-08T01:19:10;26.40;;;13.82;;
55031;SDS011;40928;51.076;7.950;2024-03-08T01:21:36;29.90;;;12.50;;
55031;SDS011;40928;51.076;7.950;2024-03-08T01:24:02;33.63;;;12.82;;
55031;SDS011;40928;51.076;7.950;2024-03-08T01:26:28;27.45;;;12.88;;
55031;SDS011;40928;51.076;7.950;2024-03-08T01:28:54;24.73;;;12.73;;
55031;SDS011;40928;51.076;7.950;2024-03-08T01:31:20;27.20;;;12.18;;
55031;SDS011;40928;51.076;7.950;2024-03-08T01:33:46;26.90;;;12.55;;
55031;SDS011;40928;51.076;7.950;2024-03-08T01:36:11;26.63;;;12.25;;
55031;SDS011;40928;51.076;7.950;2024-03-08T01:38:41;29.08;;;12.52;;
55031;SDS011;40928;51.076;7.950;2024-03-08T01:41:07;22.95;;;11.63;;
55031;SDS011;40928;51.076;7.950;2024-03-08T01:43:34;26.38;;;12.90;;
55031;SDS011;40928;51.076;7.950;2024-03-08T01:46:00;24.80;;;12.23;;
55031;SDS011;40928;51.076;7.950;2024-03-08T01:48:29;27.88;;;12.38;;
55031;SDS011;40928;51.076;7.950;2024-03-08T01:50:56;23.95;;;12.85;;
55031;SDS011;40928;51.076;7.950;2024-03-08T01:53:24;28.20;;;13.48;;
55031;SDS011;40928;51.076;7.950;2024-03-08T01:55:52;25.88;;;13.05;;
55031;SDS011;40928;51.076;7.950;2024-03-08T01:58:21;27.38;;;12.77;;
55031;SDS011;40928;51.076;7.950;2024-03-08T02:00:48;31.98;;;13.73;;
55031;SDS011;40928;51.076;7.950;2024-03-08T02:03:17;24.52;;;12.85;;
55031;SDS011;40928;51.076;7.950;2024-03-08T02:05:43;36.65;;;15.25;;
55031;SDS011;40928;51.076;7.950;2024-03-08T02:08:09;31.50;;;14.10;;
55031;SDS011;40928;51.076;7.950;2024-03-08T02:10:43;30.00;;;14.02;;
55031;SDS011;40928;51.076;7.950;2024-03-08T02:13:10;25.08;;;11.57;;
55031;SDS011;40928;51.076;7.950;2024-03-08T02:15:49;24.08;;;12.05;;
55031;SDS011;40928;51.076;7.950;2024-03-08T02:18:19;26.63;;;12.27;;
55031;SDS011;40928;51.076;7.950;2024-03-08T02:21:06;26.88;;;11.82;;
55031;SDS011;40928;51.076;7.950;2024-03-08T02:23:33;28.17;;;13.13;;
55031;SDS011;40928;51.076;7.950;2024-03-08T02:25:59;26.65;;;12.40;;
55031;SDS011;40928;51.076;7.950;2024-03-08T02:28:25;29.67;;;12.93;;
55031;SDS011;40928;51.076;7.950;2024-03-08T02:30:51;25.08;;;11.05;;
55031;SDS011;40928;51.076;7.950;2024-03-08T02:33:23;28.08;;;11.50;;
55031;SDS011;40928;51.076;7.950;2024-03-08T02:35:50;28.58;;;11.98;;
55031;SDS011;40928;51.076;7.950;2024-03-08T02:38:17;23.75;;;11.90;;
55031;SDS011;40928;51.076;7.950;2024-03-08T02:40:47;23.58;;;11.43;;
55031;SDS011;40928;51.076;7.950;2024-03-08T02:43:15;28.15;;;13.05;;
55031;SDS011;40928;51.076;7.950;2024-03-08T02:45:43;29.95;;;12.85;;
55031;SDS011;40928;51.076;7.950;2024-03-08T02:48:12;26.60;;;11.05;;
55031;SDS011;40928;51.076;7.950;2024-03-08T02:50:39;31.80;;;13.02;;
55031;SDS011;40928;51.076;7.950;2024-03-08T02:53:07;25.13;;;11.80;;
55031;SDS011;40928;51.076;7.950;2024-03-08T02:55:35;29.50;;;12.07;;
55031;SDS011;40928;51.076;7.950;2024-03-08T02:58:01;29.58;;;13.40;;
55031;SDS011;40928;51.076;7.950;2024-03-08T03:00:28;28.73;;;13.02;;
55031;SDS011;40928;51.076;7.950;2024-03-08T03:02:56;29.13;;;12.27;;
55031;SDS011;40928;51.076;7.950;2024-03-08T03:05:25;25.00;;;11.95;;
55031;SDS011;40928;51.076;7.950;2024-03-08T03:07:51;25.75;;;11.70;;
55031;SDS011;40928;51.076;7.950;2024-03-08T03:10:18;29.80;;;12.25;;
55031;SDS011;40928;51.076;7.950;2024-03-08T03:12:44;30.48;;;12.32;;
55031;SDS011;40928;51.076;7.950;2024-03-08T03:15:11;27.25;;;13.00;;
55031;SDS011;40928;51.076;7.950;2024-03-08T03:17:38;27.50;;;12.70;;
55031;SDS011;40928;51.076;7.950;2024-03-08T03:20:08;30.63;;;13.63;;
55031;SDS011;40928;51.076;7.950;2024-03-08T03:22:38;27.13;;;12.38;;
55031;SDS011;40928;51.076;7.950;2024-03-08T03:25:04;31.30;;;13.35;;
55031;SDS011;40928;51.076;7.950;2024-03-08T03:27:34;34.05;;;13.75;;
55031;SDS011;40928;51.076;7.950;2024-03-08T03:30:01;33.08;;;13.38;;
55031;SDS011;40928;51.076;7.950;2024-03-08T03:32:49;28.30;;;12.63;;
55031;SDS011;40928;51.076;7.950;2024-03-08T03:35:16;29.13;;;13.13;;
55031;SDS011;40928;51.076;7.950;2024-03-08T03:37:43;33.58;;;12.63;;
55031;SDS011;40928;51.076;7.950;2024-03-08T03:40:27;31.55;;;14.02;;
55031;SDS011;40928;51.076;7.950;2024-03-08T03:42:56;26.38;;;12.30;;
55031;SDS011;40928;51.076;7.950;2024-03-08T03:45:22;29.10;;;13.27;;
55031;SDS011;40928;51.076;7.950;2024-03-08T03:47:49;29.95;;;12.57;;
55031;SDS011;40928;51.076;7.950;2024-03-08T03:50:15;30.27;;;12.50;;
55031;SDS011;40928;51.076;7.950;2024-03-08T03:52:41;33.17;;;13.85;;
55031;SDS011;40928;51.076;7.950;2024-03-08T03:55:07;31.08;;;14.63;;
55031;SDS011;40928;51.076;7.950;2024-03-08T03:57:33;29.50;;;12.23;;
55031;SDS011;40928;51.076;7.950;2024-03-08T03:59:59;21.98;;;11.82;;
55031;SDS011;40928;51.076;7.950;2024-03-08T04:02:25;34.55;;;13.35;;
55031;SDS011;40928;51.076;7.950;2024-03-08T04:04:52;32.58;;;13.57;;
55031;SDS011;40928;51.076;7.950;2024-03-08T04:07:20;30.73;;;13.75;;
55031;SDS011;40928;51.076;7.950;2024-03-08T04:09:46;26.40;;;12.65;;
55031;SDS011;40928;51.076;7.950;2024-03-08T04:12:12;29.27;;;13.98;;
55031;SDS011;40928;51.076;7.950;2024-03-08T04:14:41;30.13;;;13.45;;
55031;SDS011;40928;51.076;7.950;2024-03-08T04:17:07;29.80;;;13.65;;
55031;SDS011;40928;51.076;7.950;2024-03-08T04:19:37;29.20;;;13.35;;
55031;SDS011;40928;51.076;7.950;2024-03-08T04:22:05;30.80;;;13.55;;
55031;SDS011;40928;51.076;7.950;2024-03-08T04:24:32;32.58;;;13.55;;
55031;SDS011;40928;51.076;7.950;2024-03-08T04:26:59;28.80;;;13.65;;
55031;SDS011;40928;51.076;7.950;2024-03-08T04:29:25;28.67;;;12.93;;
55031;SDS011;40928;51.076;7.950;2024-03-08T04:31:51;30.38;;;13.68;;
55031;SDS011;40928;51.076;7.950;2024-03-08T04:34:20;28.15;;;13.05;;
55031;SDS011;40928;51.076;7.950;2024-03-08T04:36:47;24.67;;;12.05;;
55031;SDS011;40928;51.076;7.950;2024-03-08T04:39:13;23.15;;;11.18;;
55031;SDS011;40928;51.076;7.950;2024-03-08T04:41:42;30.75;;;13.52;;
55031;SDS011;40928;51.076;7.950;2024-03-08T04:44:17;32.25;;;13.63;;
55031;SDS011;40928;51.076;7.950;2024-03-08T04:46:43;25.83;;;12.90;;
55031;SDS011;40928;51.076;7.950;2024-03-08T04:49:09;29.48;;;14.23;;
55031;SDS011;40928;51.076;7.950;2024-03-08T04:51:37;29.80;;;14.18;;
55031;SDS011;40928;51.076;7.950;2024-03-08T04:54:03;30.45;;;14.20;;
55031;SDS011;40928;51.076;7.950;2024-03-08T04:56:30;28.42;;;13.45;;
55031;SDS011;40928;51.076;7.950;2024-03-08T04:58:56;35.22;;;14.73;;
55031;SDS011;40928;51.076;7.950;2024-03-08T05:01:22;32.08;;;14.30;;
55031;SDS011;40928;51.076;7.950;2024-03-08T05:03:48;38.67;;;13.70;;
55031;SDS011;40928;51.076;7.950;2024-03-08T05:06:15;29.33;;;13.45;;
55031;SDS011;40928;51.076;7.950;2024-03-08T05:08:42;32.42;;;14.18;;
55031;SDS011;40928;51.076;7.950;2024-03-08T05:11:07;31.30;;;13.75;;
55031;SDS011;40928;51.076;7.950;2024-03-08T05:13:34;32.17;;;14.23;;
55031;SDS011;40928;51.076;7.950;2024-03-08T05:16:00;29.73;;;13.93;;
55031;SDS011;40928;51.076;7.950;2024-03-08T05:18:26;29.10;;;13.73;;
55031;SDS011;40928;51.076;7.950;2024-03-08T05:20:57;30.60;;;13.73;;
55031;SDS011;40928;51.076;7.950;2024-03-08T05:23:23;28.65;;;12.40;;
55031;SDS011;40928;51.076;7.950;2024-03-08T05:25:49;29.48;;;13.55;;
55031;SDS011;40928;51.076;7.950;2024-03-08T05:28:15;42.50;;;14.68;;
55031;SDS011;40928;51.076;7.950;2024-03-08T05:30:41;33.88;;;14.77;;
55031;SDS011;40928;51.076;7.950;2024-03-08T05:33:07;30.70;;;13.27;;
55031;SDS011;40928;51.076;7.950;2024-03-08T05:35:35;36.00;;;14.63;;
55031;SDS011;40928;51.076;7.950;2024-03-08T05:38:01;24.15;;;12.13;;
55031;SDS011;40928;51.076;7.950;2024-03-08T05:40:28;29.77;;;12.68;;
55031;SDS011;40928;51.076;7.950;2024-03-08T05:42:57;32.42;;;14.23;;
55031;SDS011;40928;51.076;7.950;2024-03-08T05:45:24;32.30;;;14.43;;
55031;SDS011;40928;51.076;7.950;2024-03-08T05:47:50;33.08;;;13.80;;
55031;SDS011;40928;51.076;7.950;2024-03-08T05:50:19;33.75;;;14.13;;
55031;SDS011;40928;51.076;7.950;2024-03-08T05:52:45;32.97;;;13.38;;
55031;SDS011;40928;51.076;7.950;2024-03-08T05:55:13;34.05;;;14.80;;
55031;SDS011;40928;51.076;7.950;2024-03-08T05:57:41;24.85;;;12.05;;
55031;SDS011;40928;51.076;7.950;2024-03-08T06:00:07;29.08;;;13.38;;
55031;SDS011;40928;51.076;7.950;2024-03-08T06:02:39;28.42;;;13.13;;
55031;SDS011;40928;51.076;7.950;2024-03-08T06:05:10;33.97;;;14.27;;
55031;SDS011;40928;51.076;7.950;2024-03-08T06:07:37;30.35;;;13.95;;
55031;SDS011;40928;51.076;7.950;2024-03-08T06:10:07;29.65;;;14.30;;
55031;SDS011;40928;51.076;7.950;2024-03-08T06:12:35;25.00;;;12.52;;
55031;SDS011;40928;51.076;7.950;2024-03-08T06:15:09;34.50;;;14.05;;
55031;SDS011;40928;51.076;7.950;2024-03-08T06:17:35;30.15;;;13.82;;
55031;SDS011;40928;51.076;7.950;2024-03-08T06:20:02;25.60;;;13.13;;
55031;SDS011;40928;51.076;7.950;2024-03-08T06:22:37;31.30;;;12.20;;
55031;SDS011;40928;51.076;7.950;2024-03-08T06:25:10;31.98;;;13.70;;
55031;SDS011;40928;51.076;7.950;2024-03-08T06:27:42;29.40;;;13.32;;
55031;SDS011;40928;51.076;7.950;2024-03-08T06:30:09;29.70;;;12.80;;
55031;SDS011;40928;51.076;7.950;2024-03-08T06:32:37;32.38;;;14.15;;
55031;SDS011;40928;51.076;7.950;2024-03-08T06:35:03;29.17;;;13.45;;
55031;SDS011;40928;51.076;7.950;2024-03-08T06:37:33;35.53;;;14.63;;
55031;SDS011;40928;51.076;7.950;2024-03-08T06:39:59;35.60;;;14.38;;
55031;SDS011;40928;51.076;7.950;2024-03-08T06:42:29;25.50;;;13.05;;
55031;SDS011;40928;51.076;7.950;2024-03-08T06:44:58;32.85;;;15.25;;
55031;SDS011;40928;51.076;7.950;2024-03-08T06:47:30;36.92;;;16.13;;
55031;SDS011;40928;51.076;7.950;2024-03-08T06:49:56;31.85;;;13.38;;
55031;SDS011;40928;51.076;7.950;2024-03-08T06:52:21;31.92;;;14.15;;
55031;SDS011;40928;51.076;7.950;2024-03-08T06:54:47;31.83;;;14.98;;
55031;SDS011;40928;51.076;7.950;2024-03-08T06:57:14;36.00;;;16.00;;
55031;SDS011;40928;51.076;7.950;2024-03-08T06:59:42;36.80;;;15.27;;
55031;SDS011;40928;51.076;7.950;2024-03-08T07:02:07;34.50;;;14.30;;
55031;SDS011;40928;51.076;7.950;2024-03-08T07:04:35;33.25;;;15.07;;
55031;SDS011;40928;51.076;7.950;2024-03-08T07:07:06;28.20;;;13.80;;
55031;SDS011;40928;51.076;7.950;2024-03-08T07:09:38;31.15;;;14.25;;
55031;SDS011;40928;51.076;7.950;2024-03-08T07:12:04;35.08;;;15.07;;
55031;SDS011;40928;51.076;7.950;2024-03-08T07:14:33;36.75;;;15.30;;
55031;SDS011;40928;51.076;7.950;2024-03-08T07:16:59;29.77;;;15.10;;
55031;SDS011;40928;51.076;7.950;2024-03-08T07:19:24;28.40;;;13.40;;
55031;SDS011;40928;51.076;7.950;2024-03-08T07:21:50;32.05;;;13.88;;
55031;SDS011;40928;51.076;7.950;2024-03-08T07:24:16;33.67;;;15.38;;
55031;SDS011;40928;51.076;7.950;2024-03-08T07:26:42;35.17;;;14.75;;
55031;SDS011;40928;51.076;7.950;2024-03-08T07:29:08;35.75;;;15.05;;
55031;SDS011;40928;51.076;7.950;2024-03-08T07:31:34;33.38;;;14.45;;
55031;SDS011;40928;51.076;7.950;2024-03-08T07:34:15;31.98;;;14.18;;
55031;SDS011;40928;51.076;7.950;2024-03-08T07:36:42;37.45;;;16.45;;
55031;SDS011;40928;51.076;7.950;2024-03-08T07:39:08;31.65;;;15.88;;
55031;SDS011;40928;51.076;7.950;2024-03-08T07:41:39;34.55;;;15.10;;
55031;SDS011;40928;51.076;7.950;2024-03-08T07:44:06;32.63;;;14.93;;
55031;SDS011;40928;51.076;7.950;2024-03-08T07:46:32;31.95;;;14.82;;
55031;SDS011;40928;51.076;7.950;2024-03-08T07:48:59;32.97;;;14.73;;
55031;SDS011;40928;51.076;7.950;2024-03-08T07:51:25;32.28;;;15.07;;
55031;SDS011;40928;51.076;7.950;2024-03-08T07:53:51;39.50;;;16.02;;
55031;SDS011;40928;51.076;7.950;2024-03-08T07:56:17;34.28;;;15.35;;
55031;SDS011;40928;51.076;7.950;2024-03-08T07:58:44;34.80;;;14.60;;
55031;SDS011;40928;51.076;7.950;2024-03-08T08:01:16;31.35;;;15.27;;
55031;SDS011;40928;51.076;7.950;2024-03-08T08:03:43;29.80;;;14.55;;
55031;SDS011;40928;51.076;7.950;2024-03-08T08:06:09;33.05;;;14.50;;
55031;SDS011;40928;51.076;7.950;2024-03-08T08:08:35;32.58;;;13.55;;
55031;SDS011;40928;51.076;7.950;2024-03-08T08:11:02;26.58;;;13.20;;
55031;SDS011;40928;51.076;7.950;2024-03-08T08:13:30;24.92;;;12.93;;
55031;SDS011;40928;51.076;7.950;2024-03-08T08:15:57;24.88;;;12.68;;
55031;SDS011;40928;51.076;7.950;2024-03-08T08:18:24;27.70;;;12.63;;
55031;SDS011;40928;51.076;7.950;2024-03-08T08:20:51;25.35;;;12.70;;
55031;SDS011;40928;51.076;7.950;2024-03-08T08:23:19;26.58;;;12.77;;
55031;SDS011;40928;51.076;7.950;2024-03-08T08:25:46;28.42;;;12.57;;
55031;SDS011;40928;51.076;7.950;2024-03-08T08:28:15;22.92;;;11.68;;
55031;SDS011;40928;51.076;7.950;2024-03-08T08:30:45;26.20;;;12.13;;
55031;SDS011;40928;51.076;7.950;2024-03-08T08:33:11;24.00;;;11.95;;
55031;SDS011;40928;51.076;7.950;2024-03-08T08:35:38;24.35;;;11.05;;
55031;SDS011;40928;51.076;7.950;2024-03-08T08:38:04;25.92;;;12.35;;
55031;SDS011;40928;51.076;7.950;2024-03-08T08:40:30;28.30;;;13.18;;
55031;SDS011;40928;51.076;7.950;2024-03-08T08:42:58;23.52;;;10.70;;
55031;SDS011;40928;51.076;7.950;2024-03-08T08:45:25;23.58;;;11.38;;
55031;SDS011;40928;51.076;7.950;2024-03-08T08:47:51;22.55;;;11.68;;
55031;SDS011;40928;51.076;7.950;2024-03-08T08:50:17;27.95;;;13.32;;
55031;SDS011;40928;51.076;7.950;2024-03-08T08:52:48;27.58;;;13.70;;
55031;SDS011;40928;51.076;7.950;2024-03-08T08:55:15;21.20;;;11.32;;
55031;SDS011;40928;51.076;7.950;2024-03-08T08:57:41;20.95;;;10.32;;
55031;SDS011;40928;51.076;7.950;2024-03-08T09:00:07;21.35;;;10.70;;
55031;SDS011;40928;51.076;7.950;2024-03-08T09:02:34;23.73;;;12.77;;
55031;SDS011;40928;51.076;7.950;2024-03-08T09:05:00;20.02;;;11.50;;
55031;SDS011;40928;51.076;7.950;2024-03-08T09:07:29;27.58;;;11.05;;
55031;SDS011;40928;51.076;7.950;2024-03-08T09:09:55;21.77;;;11.15;;
55031;SDS011;40928;51.076;7.950;2024-03-08T09:12:23;22.83;;;11.93;;
55031;SDS011;40928;51.076;7.950;2024-03-08T09:14:49;21.45;;;11.27;;
55031;SDS011;40928;51.076;7.950;2024-03-08T09:17:15;26.40;;;11.85;;
55031;SDS011;40928;51.076;7.950;2024-03-08T09:19:49;26.63;;;11.70;;
55031;SDS011;40928;51.076;7.950;2024-03-08T09:22:15;23.58;;;10.30;;
55031;SDS011;40928;51.076;7.950;2024-03-08T09:24:41;23.40;;;10.38;;
55031;SDS011;40928;51.076;7.950;2024-03-08T09:27:08;22.20;;;10.75;;
55031;SDS011;40928;51.076;7.950;2024-03-08T09:29:35;20.00;;;9.85;;
55031;SDS011;40928;51.076;7.950;2024-03-08T09:32:01;23.52;;;10.02;;
55031;SDS011;40928;51.076;7.950;2024-03-08T09:34:27;20.70;;;10.02;;
55031;SDS011;40928;51.076;7.950;2024-03-08T09:36:53;19.52;;;9.73;;
55031;SDS011;40928;51.076;7.950;2024-03-08T09:39:19;20.17;;;9.57;;
55031;SDS011;40928;51.076;7.950;2024-03-08T09:41:46;18.52;;;9.68;;
55031;SDS011;40928;51.076;7.950;2024-03-08T09:44:16;20.42;;;10.32;;
55031;SDS011;40928;51.076;7.950;2024-03-08T09:46:42;20.17;;;9.93;;
55031;SDS011;40928;51.076;7.950;2024-03-08T09:49:07;16.65;;;9.07;;
55031;SDS011;40928;51.076;7.950;2024-03-08T09:51:36;20.30;;;10.23;;
55031;SDS011;40928;51.076;7.950;2024-03-08T09:54:06;17.38;;;9.38;;
55031;SDS011;40928;51.076;7.950;2024-03-08T09:56:35;18.25;;;9.60;;
55031;SDS011;40928;51.076;7.950;2024-03-08T09:59:02;18.70;;;10.02;;
55031;SDS011;40928;51.076;7.950;2024-03-08T10:01:33;17.10;;;8.93;;
55031;SDS011;40928;51.076;7.950;2024-03-08T10:03:59;16.92;;;9.63;;
55031;SDS011;40928;51.076;7.950;2024-03-08T10:06:25;16.42;;;8.85;;
55031;SDS011;40928;51.076;7.950;2024-03-08T10:08:51;14.60;;;8.48;;
55031;SDS011;40928;51.076;7.950;2024-03-08T10:11:20;11.98;;;7.72;;
55031;SDS011;40928;51.076;7.950;2024-03-08T10:13:47;16.10;;;8.88;;
55031;SDS011;40928;51.076;7.950;2024-03-08T10:16:13;14.95;;;8.07;;
55031;SDS011;40928;51.076;7.950;2024-03-08T10:18:39;17.05;;;8.85;;
55031;SDS011;40928;51.076;7.950;2024-03-08T10:21:07;15.15;;;8.30;;
55031;SDS011;40928;51.076;7.950;2024-03-08T10:23:35;14.23;;;7.70;;
55031;SDS011;40928;51.076;7.950;2024-03-08T10:28:44;13.27;;;8.23;;
55031;SDS011;40928;51.076;7.950;2024-03-08T10:31:10;12.45;;;7.55;;
55031;SDS011;40928;51.076;7.950;2024-03-08T10:33:37;12.73;;;7.43;;
55031;SDS011;40928;51.076;7.950;2024-03-08T10:36:05;13.80;;;7.68;;
55031;SDS011;40928;51.076;7.950;2024-03-08T10:38:33;13.60;;;7.55;;
55031;SDS011;40928;51.076;7.950;2024-03-08T10:41:01;12.15;;;6.97;;
55031;SDS011;40928;51.076;7.950;2024-03-08T10:43:31;12.60;;;7.30;;
55031;SDS011;40928;51.076;7.950;2024-03-08T10:46:30;15.40;;;7.18;;
55031;SDS011;40928;51.076;7.950;2024-03-08T10:48:54;13.45;;;7.45;;
55031;SDS011;40928;51.076;7.950;2024-03-08T10:51:24;10.88;;;6.65;;
55031;SDS011;40928;51.076;7.950;2024-03-08T10:53:54;11.60;;;6.47;;
55031;SDS011;40928;51.076;7.950;2024-03-08T10:56:22;9.27;;;6.35;;
55031;SDS011;40928;51.076;7.950;2024-03-08T10:58:48;11.68;;;6.78;;
55031;SDS011;40928;51.076;7.950;2024-03-08T11:01:15;11.95;;;6.85;;
55031;SDS011;40928;51.076;7.950;2024-03-08T11:08:40;11.45;;;7.00;;
55031;SDS011;40928;51.076;7.950;2024-03-08T11:11:23;11.82;;;7.28;;
55031;SDS011;40928;51.076;7.950;2024-03-08T11:13:55;11.60;;;7.20;;
55031;SDS011;40928;51.076;7.950;2024-03-08T11:18:53;12.13;;;7.28;;
55031;SDS011;40928;51.076;7.950;2024-03-08T11:21:19;12.02;;;7.07;;
55031;SDS011;40928;51.076;7.950;2024-03-08T11:24:01;10.10;;;6.82;;
55031;SDS011;40928;51.076;7.950;2024-03-08T11:26:33;12.23;;;7.25;;
55031;SDS011;40928;51.076;7.950;2024-03-08T11:32:04;11.18;;;7.15;;
55031;SDS011;40928;51.076;7.950;2024-03-08T11:34:41;14.80;;;7.47;;
55031;SDS011;40928;51.076;7.950;2024-03-08T11:37:14;11.03;;;7.43;;
55031;SDS011;40928;51.076;7.950;2024-03-08T11:39:53;13.43;;;8.15;;
55031;SDS011;40928;51.076;7.950;2024-03-08T11:42:24;13.82;;;8.15;;
55031;SDS011;40928;51.076;7.950;2024-03-08T11:44:53;12.48;;;8.70;;
55031;SDS011;40928;51.076;7.950;2024-03-08T11:47:20;11.48;;;6.95;;
55031;SDS011;40928;51.076;7.950;2024-03-08T11:49:49;12.85;;;7.97;;
55031;SDS011;40928;51.076;7.950;2024-03-08T11:52:16;12.70;;;7.88;;
55031;SDS011;40928;51.076;7.950;2024-03-08T11:54:42;13.57;;;8.93;;
55031;SDS011;40928;51.076;7.950;2024-03-08T11:57:17;16.65;;;9.15;;
55031;SDS011;40928;51.076;7.950;2024-03-08T11:59:53;11.82;;;8.00;;
55031;SDS011;40928;51.076;7.950;2024-03-08T12:02:23;13.20;;;8.40;;
55031;SDS011;40928;51.076;7.950;2024-03-08T12:04:56;13.65;;;8.65;;
55031;SDS011;40928;51.076;7.950;2024-03-08T12:07:23;10.38;;;7.72;;
55031;SDS011;40928;51.076;7.950;2024-03-08T12:12:48;13.60;;;8.52;;
55031;SDS011;40928;51.076;7.950;2024-03-08T12:15:16;13.32;;;8.77;;
55031;SDS011;40928;51.076;7.950;2024-03-08T12:17:47;13.70;;;7.85;;
55031;SDS011;40928;51.076;7.950;2024-03-08T12:20:17;13.55;;;8.20;;
55031;SDS011;40928;51.076;7.950;2024-03-08T12:22:47;14.82;;;8.75;;
55031;SDS011;40928;51.076;7.950;2024-03-08T12:25:14;11.70;;;8.13;;
55031;SDS011;40928;51.076;7.950;2024-03-08T12:27:41;14.23;;;9.18;;
55031;SDS011;40928;51.076;7.950;2024-03-08T12:32:51;12.15;;;8.77;;
55031;SDS011;40928;51.076;7.950;2024-03-08T12:35:28;16.65;;;9.57;;
55031;SDS011;40928;51.076;7.950;2024-03-08T12:37:58;12.60;;;8.30;;
55031;SDS011;40928;51.076;7.950;2024-03-08T12:40:34;13.63;;;8.52;;
55031;SDS011;40928;51.076;7.950;2024-03-08T12:43:00;12.55;;;8.27;;
55031;SDS011;40928;51.076;7.950;2024-03-08T12:45:28;12.95;;;9.30;;
55031;SDS011;40928;51.076;7.950;2024-03-08T12:47:54;12.52;;;9.02;;
55031;SDS011;40928;51.076;7.950;2024-03-08T12:50:21;13.90;;;9.00;;
55031;SDS011;40928;51.076;7.950;2024-03-08T12:52:47;13.57;;;8.38;;
55031;SDS011;40928;51.076;7.950;2024-03-08T12:55:18;12.30;;;8.20;;
55031;SDS011;40928;51.076;7.950;2024-03-08T12:57:44;14.32;;;8.70;;
55031;SDS011;40928;51.076;7.950;2024-03-08T13:00:10;16.58;;;8.68;;
55031;SDS011;40928;51.076;7.950;2024-03-08T13:02:44;11.27;;;8.07;;
55031;SDS011;40928;51.076;7.950;2024-03-08T13:05:15;16.55;;;9.23;;
55031;SDS011;40928;51.076;7.950;2024-03-08T13:07:41;11.75;;;8.80;;
55031;SDS011;40928;51.076;7.950;2024-03-08T13:10:14;11.98;;;8.38;;
55031;SDS011;40928;51.076;7.950;2024-03-08T13:12:43;14.23;;;8.48;;
55031;SDS011;40928;51.076;7.950;2024-03-08T13:15:10;12.75;;;8.05;;
55031;SDS011;40928;51.076;7.950;2024-03-08T13:17:40;14.15;;;9.30;;
55031;SDS011;40928;51.076;7.950;2024-03-08T13:20:08;14.38;;;8.85;;
55031;SDS011;40928;51.076;7.950;2024-03-08T13:22:35;13.02;;;8.90;;
55031;SDS011;40928;51.076;7.950;2024-03-08T13:25:01;12.88;;;9.10;;
55031;SDS011;40928;51.076;7.950;2024-03-08T13:27:28;13.75;;;8.75;;
55031;SDS011;40928;51.076;7.950;2024-03-08T13:29:54;13.60;;;8.98;;
55031;SDS011;40928;51.076;7.950;2024-03-08T13:32:19;12.77;;;8.82;;
55031;SDS011;40928;51.076;7.950;2024-03-08T13:34:49;14.48;;;8.63;;
55031;SDS011;40928;51.076;7.950;2024-03-08T13:37:19;15.63;;;9.73;;
55031;SDS011;40928;51.076;7.950;2024-03-08T13:39:45;11.98;;;8.27;;
55031;SDS011;40928;51.076;7.950;2024-03-08T13:42:11;14.32;;;9.52;;
55031;SDS011;40928;51.076;7.950;2024-03-08T13:44:39;14.25;;;9.52;;
55031;SDS011;40928;51.076;7.950;2024-03-08T13:47:08;11.38;;;8.13;;
55031;SDS011;40928;51.076;7.950;2024-03-08T13:49:37;12.80;;;8.38;;
55031;SDS011;40928;51.076;7.950;2024-03-08T13:52:03;13.32;;;8.65;;
55031;SDS011;40928;51.076;7.950;2024-03-08T13:54:29;15.55;;;8.50;;
55031;SDS011;40928;51.076;7.950;2024-03-08T13:56:57;15.30;;;9.30;;
55031;SDS011;40928;51.076;7.950;2024-03-08T13:59:23;16.80;;;9.75;;
55031;SDS011;40928;51.076;7.950;2024-03-08T14:01:50;13.45;;;8.82;;
55031;SDS011;40928;51.076;7.950;2024-03-08T14:04:16;16.25;;;9.85;;
55031;SDS011;40928;51.076;7.950;2024-03-08T14:06:44;16.48;;;8.93;;
55031;SDS011;40928;51.076;7.950;2024-03-08T14:09:11;14.20;;;8.93;;
55031;SDS011;40928;51.076;7.950;2024-03-08T14:11:45;15.10;;;9.27;;
55031;SDS011;40928;51.076;7.950;2024-03-08T14:14:11;13.48;;;7.63;;
55031;SDS011;40928;51.076;7.950;2024-03-08T14:16:40;16.83;;;9.35;;
55031;SDS011;40928;51.076;7.950;2024-03-08T14:19:06;13.60;;;8.57;;
55031;SDS011;40928;51.076;7.950;2024-03-08T14:21:32;17.75;;;9.27;;
55031;SDS011;40928;51.076;7.950;2024-03-08T14:23:58;15.55;;;8.63;;
55031;SDS011;40928;51.076;7.950;2024-03-08T14:26:24;17.38;;;9.13;;
55031;SDS011;40928;51.076;7.950;2024-03-08T14:28:51;13.82;;;8.30;;
55031;SDS011;40928;51.076;7.950;2024-03-08T14:31:20;15.82;;;8.50;;
55031;SDS011;40928;51.076;7.950;2024-03-08T14:33:49;13.15;;;8.00;;
55031;SDS011;40928;51.076;7.950;2024-03-08T14:36:15;14.98;;;7.80;;
55031;SDS011;40928;51.076;7.950;2024-03-08T14:38:45;12.40;;;7.60;;
55031;SDS011;40928;51.076;7.950;2024-03-08T14:41:12;13.50;;;7.95;;
55031;SDS011;40928;51.076;7.950;2024-03-08T14:43:43;12.18;;;7.53;;
55031;SDS011;40928;51.076;7.950;2024-03-08T14:46:13;12.15;;;8.07;;
55031;SDS011;40928;51.076;7.950;2024-03-08T14:48:51;12.93;;;7.85;;
55031;SDS011;40928;51.076;7.950;2024-03-08T14:51:20;12.88;;;7.47;;